Time,TemperatureF,DewpointF,PressureIn,WindDirection,WindDirectionDegrees,WindSpeedMPH,WindSpeedGustMPH,Humidity,HourlyPrecipIn,Conditions,Clouds,dailyrainin,SoftwareType,DateUTC
2013-01-03 00:00:00,16.4,6.7,30.27,SSW,202,2.0,4.0,65,0.00,,---,0.00,VWS V14.01,2013-01-03 05:00:00,
2013-01-03 00:30:00,15.9,6.6,30.27,SSW,202,3.0,7.0,66,0.00,,---,0.00,VWS V14.01,2013-01-03 05:30:00,
2013-01-03 01:00:00,16.2,6.2,30.26,South,180,3.0,7.0,64,0.00,,---,0.00,VWS V14.01,2013-01-03 06:00:00,
2013-01-03 01:30:00,16.5,6.5,30.26,South,180,2.0,6.0,64,0.00,,---,0.00,VWS V14.01,2013-01-03 06:30:00,
2013-01-03 02:00:00,15.6,6.9,30.26,SSW,202,4.0,5.0,68,0.00,,---,0.00,VWS V14.01,2013-01-03 07:00:00,
2013-01-03 02:30:00,15.7,6.7,30.25,SSW,202,3.0,6.0,67,0.00,,---,0.00,VWS V14.01,2013-01-03 07:30:00,
2013-01-03 03:00:00,16.2,6.8,30.25,South,180,2.0,7.0,66,0.00,,---,0.00,VWS V14.01,2013-01-03 08:00:00,
2013-01-03 03:30:00,15.4,6.4,30.25,South,180,3.0,7.0,67,0.00,,---,0.00,VWS V14.01,2013-01-03 08:30:00,
2013-01-03 04:00:00,15.6,6.6,30.25,South,180,3.0,8.0,67,0.00,,---,0.00,VWS V14.01,2013-01-03 09:00:00,
2013-01-03 05:00:00,13.3,5.4,30.26,SSE,158,1.0,5.0,70,0.00,,---,0.00,VWS V14.01,2013-01-03 10:00:00,
2013-01-03 05:30:00,12.8,5.8,30.26,SSW,202,2.0,7.0,73,0.00,,---,0.00,VWS V14.01,2013-01-03 10:30:00,
2013-01-03 06:00:00,14.1,6.8,30.27,SW,225,4.0,6.0,72,0.00,,---,0.00,VWS V14.01,2013-01-03 11:00:00,
2013-01-03 06:30:00,14.9,5.9,30.28,SW,225,4.0,6.0,67,0.00,,---,0.00,VWS V14.01,2013-01-03 11:30:00,
2013-01-03 07:00:00,14.8,5.5,30.27,SSW,202,2.0,5.0,66,0.00,,---,0.00,VWS V14.01,2013-01-03 12:00:00,
2013-01-03 07:30:00,14.6,5.0,30.27,South,180,1.0,5.0,65,0.00,,---,0.00,VWS V14.01,2013-01-03 12:30:00,
2013-01-03 08:00:00,14.6,5.3,30.28,SSW,202,3.0,7.0,66,0.00,,---,0.00,VWS V14.01,2013-01-03 13:00:00,
2013-01-03 08:30:00,14.0,5.4,30.28,South,180,3.0,6.0,68,0.00,,---,0.00,VWS V14.01,2013-01-03 13:30:00,
2013-01-03 09:00:00,15.1,5.8,30.28,SSW,202,5.0,8.0,66,0.00,,---,0.00,VWS V14.01,2013-01-03 14:00:00,
2013-01-03 09:30:00,16.1,6.4,30.29,SSW,202,4.0,7.0,65,0.00,,---,0.00,VWS V14.01,2013-01-03 14:30:00,
2013-01-03 10:00:00,15.9,6.6,30.30,SSW,202,3.0,7.0,66,0.00,,---,0.00,VWS V14.01,2013-01-03 15:00:00,
2013-01-03 10:30:00,18.0,7.9,30.30,SW,225,3.0,6.0,64,0.00,,---,0.00,VWS V14.01,2013-01-03 15:30:00,
2013-01-03 11:00:00,20.6,9.3,30.30,SW,225,2.0,5.0,61,0.00,,---,0.00,VWS V14.01,2013-01-03 16:00:00,
2013-01-03 11:30:00,22.4,10.3,30.30,SSW,202,1.0,4.0,59,0.00,,---,0.00,VWS V14.01,2013-01-03 16:30:00,
2013-01-03 12:00:00,24.4,11.8,30.31,SSW,202,1.0,4.0,58,0.00,,---,0.00,VWS V14.01,2013-01-03 17:00:00,
2013-01-03 12:30:00,26.3,14.3,30.30,WNW,292,3.0,7.0,60,0.00,,---,0.00,VWS V14.01,2013-01-03 17:30:00,
2013-01-03 13:00:00,28.7,18.1,30.29,WNW,292,6.0,13.0,64,0.00,,---,0.00,VWS V14.01,2013-01-03 18:00:00,
2013-01-03 13:30:00,29.5,20.3,30.28,West,270,8.0,19.0,68,0.00,,---,0.00,VWS V14.01,2013-01-03 18:30:00,
2013-01-03 14:00:00,31.2,20.5,30.27,WNW,292,7.0,13.0,64,0.00,,---,0.00,VWS V14.01,2013-01-03 19:00:00,
2013-01-03 14:30:00,33.1,19.1,30.27,WNW,292,8.0,16.0,56,0.00,,---,0.00,VWS V14.01,2013-01-03 19:30:00,
2013-01-03 15:30:00,32.5,19.4,30.28,WNW,292,9.0,19.0,58,0.01,,---,0.01,VWS V14.01,2013-01-03 20:30:00,
2013-01-03 16:33:00,32.5,19.4,30.28,WNW,292,9.0,19.0,58,0.01,,---,0.01,VWS V14.01,2013-01-03 21:33:00,
2013-01-03 16:38:00,32.1,19.8,30.30,West,271,9.0,14.0,60,0.01,,---,0.01,VWS V14.01,2013-01-03 21:38:00,
2013-01-03 16:43:00,32.1,19.4,30.30,West,266,8.0,14.0,59,0.01,,---,0.01,VWS V14.01,2013-01-03 21:43:00,
2013-01-03 16:48:00,32.1,19.8,30.30,West,271,6.0,14.0,60,0.01,,---,0.01,VWS V14.01,2013-01-03 21:48:00,
2013-01-03 16:53:00,32.1,20.2,30.30,West,272,3.0,14.0,61,0.01,,---,0.01,VWS V14.01,2013-01-03 21:53:00,
2013-01-03 16:58:00,32.1,20.2,30.30,West,281,7.0,14.0,61,0.01,,---,0.01,VWS V14.01,2013-01-03 21:58:00,
2013-01-03 17:03:00,31.9,20.0,30.30,West,265,6.0,9.0,61,0.00,,---,0.01,VWS V14.01,2013-01-03 22:03:00,
2013-01-03 17:08:00,31.9,19.6,30.30,West,265,5.0,11.0,60,0.00,,---,0.01,VWS V14.01,2013-01-03 22:08:00,
2013-01-03 17:13:00,31.9,20.0,30.31,West,271,8.0,11.0,61,0.00,,---,0.01,VWS V14.01,2013-01-03 22:13:00,
2013-01-03 17:18:00,31.8,20.3,30.31,West,269,9.0,11.0,62,0.00,,---,0.01,VWS V14.01,2013-01-03 22:18:00,
2013-01-03 17:23:00,31.6,20.1,30.31,WSW,257,3.0,11.0,62,0.00,,---,0.01,VWS V14.01,2013-01-03 22:23:00,
2013-01-03 17:28:00,31.5,20.7,30.31,WSW,248,6.0,11.0,64,0.00,,---,0.01,VWS V14.01,2013-01-03 22:28:00,
2013-01-03 17:33:00,31.3,20.5,30.31,WSW,255,4.0,9.0,64,0.00,,---,0.01,VWS V14.01,2013-01-03 22:33:00,
2013-01-03 17:38:00,31.2,20.5,30.31,WSW,255,8.0,10.0,64,0.00,,---,0.01,VWS V14.01,2013-01-03 22:38:00,
2013-01-03 17:43:00,31.0,20.3,30.32,WSW,246,7.0,11.0,64,0.00,,---,0.01,VWS V14.01,2013-01-03 22:43:00,
2013-01-03 17:48:00,31.0,20.6,30.32,West,260,4.0,11.0,65,0.00,,---,0.01,VWS V14.01,2013-01-03 22:48:00,
2013-01-03 17:53:00,30.9,20.5,30.32,West,269,6.0,11.0,65,0.00,,---,0.01,VWS V14.01,2013-01-03 22:53:00,
2013-01-03 17:58:00,30.9,20.5,30.32,West,259,5.0,11.0,65,0.00,,---,0.01,VWS V14.01,2013-01-03 22:58:00,
2013-01-03 18:03:00,30.7,20.7,30.32,WSW,258,8.0,10.0,66,0.00,,---,0.01,VWS V14.01,2013-01-03 23:03:00,
2013-01-03 18:08:00,30.6,20.6,30.32,West,262,6.0,11.0,66,0.00,,---,0.01,VWS V14.01,2013-01-03 23:08:00,
2013-01-03 18:13:00,30.7,20.7,30.32,WSW,256,8.0,11.0,66,0.00,,---,0.01,VWS V14.01,2013-01-03 23:13:00,
2013-01-03 18:18:00,30.6,20.6,30.32,West,265,6.0,11.0,66,0.00,,---,0.01,VWS V14.01,2013-01-03 23:18:00,
2013-01-03 18:23:00,30.6,20.6,30.33,West,268,6.0,12.0,66,0.00,,---,0.01,VWS V14.01,2013-01-03 23:23:00,
2013-01-03 18:28:00,30.6,21.0,30.33,West,278,5.0,12.0,67,0.00,,---,0.01,VWS V14.01,2013-01-03 23:28:00,
2013-01-03 18:33:00,30.4,20.4,30.33,West,263,8.0,9.0,66,0.00,,---,0.01,VWS V14.01,2013-01-03 23:33:00,
2013-01-03 18:38:00,30.4,20.4,30.33,West,261,7.0,9.0,66,0.00,,---,0.01,VWS V14.01,2013-01-03 23:38:00,
2013-01-03 18:43:00,30.3,20.7,30.33,West,264,3.0,9.0,67,0.00,,---,0.01,VWS V14.01,2013-01-03 23:43:00,
2013-01-03 18:48:00,30.1,20.8,30.33,West,259,4.0,9.0,68,0.00,,---,0.01,VWS V14.01,2013-01-03 23:48:00,
2013-01-03 18:53:00,30.0,20.7,30.33,WSW,248,5.0,9.0,68,0.00,,---,0.01,VWS V14.01,2013-01-03 23:53:00,
2013-01-03 18:58:00,30.0,20.4,30.33,WSW,253,8.0,9.0,67,0.00,,---,0.01,VWS V14.01,2013-01-03 23:58:00,
2013-01-03 19:03:00,30.0,20.7,30.33,SW,236,6.0,9.0,68,0.00,,---,0.01,VWS V14.01,2013-01-04 00:03:00,
2013-01-03 19:08:00,29.7,20.5,30.34,WSW,254,5.0,11.0,68,0.00,,---,0.01,VWS V14.01,2013-01-04 00:08:00,
2013-01-03 19:13:00,29.5,20.3,30.34,West,265,6.0,11.0,68,0.00,,---,0.01,VWS V14.01,2013-01-04 00:13:00,
2013-01-03 19:18:00,29.4,20.2,30.34,West,269,7.0,11.0,68,0.00,,---,0.01,VWS V14.01,2013-01-04 00:18:00,
2013-01-03 19:23:00,29.1,19.9,30.34,West,259,5.0,11.0,68,0.00,,---,0.01,VWS V14.01,2013-01-04 00:23:00,
2013-01-03 19:28:00,29.1,20.2,30.34,WSW,248,7.0,11.0,69,0.00,,---,0.01,VWS V14.01,2013-01-04 00:28:00,
2013-01-03 19:33:00,29.1,20.2,30.34,West,263,8.0,10.0,69,0.00,,---,0.01,VWS V14.01,2013-01-04 00:33:00,
2013-01-03 19:38:00,29.3,20.4,30.34,WSW,251,9.0,12.0,69,0.00,,---,0.01,VWS V14.01,2013-01-04 00:38:00,
2013-01-03 19:43:00,29.4,20.5,30.34,WSW,248,5.0,12.0,69,0.00,,---,0.01,VWS V14.01,2013-01-04 00:43:00,
2013-01-03 19:48:00,29.4,20.8,30.35,WSW,253,13.0,13.0,70,0.00,,---,0.01,VWS V14.01,2013-01-04 00:48:00,
2013-01-03 19:53:00,29.4,20.8,30.34,West,271,6.0,13.0,70,0.00,,---,0.01,VWS V14.01,2013-01-04 00:53:00,
2013-01-03 19:58:00,29.4,20.8,30.35,WSW,252,5.0,13.0,70,0.00,,---,0.01,VWS V14.01,2013-01-04 00:58:00,
2013-01-03 20:03:00,29.5,20.9,30.35,West,259,7.0,9.0,70,0.00,,---,0.01,VWS V14.01,2013-01-04 01:03:00,
2013-01-03 20:08:00,29.5,20.9,30.35,West,265,9.0,9.0,70,0.00,,---,0.01,VWS V14.01,2013-01-04 01:08:00,
2013-01-03 20:13:00,29.5,20.9,30.35,West,272,5.0,9.0,70,0.00,,---,0.01,VWS V14.01,2013-01-04 01:13:00,
2013-01-03 20:18:00,29.5,20.9,30.35,West,271,6.0,10.0,70,0.00,,---,0.01,VWS V14.01,2013-01-04 01:18:00,
2013-01-03 20:23:00,29.4,21.2,30.35,West,267,6.0,10.0,71,0.00,,---,0.01,VWS V14.01,2013-01-04 01:23:00,
2013-01-03 20:29:00,29.4,21.2,30.35,West,263,6.0,10.0,71,0.00,,---,0.01,VWS V14.01,2013-01-04 01:29:00,
2013-01-03 20:33:00,29.4,21.2,30.34,West,268,7.0,8.0,71,0.00,,---,0.01,VWS V14.01,2013-01-04 01:33:00,
2013-01-03 20:38:00,29.4,21.2,30.35,West,267,9.0,12.0,71,0.00,,---,0.01,VWS V14.01,2013-01-04 01:38:00,
2013-01-03 20:44:00,29.4,21.2,30.35,WSW,250,6.0,12.0,71,0.00,,---,0.01,VWS V14.01,2013-01-04 01:44:00,
2013-01-03 20:49:00,29.4,21.2,30.34,West,261,3.0,12.0,71,0.00,,---,0.01,VWS V14.01,2013-01-04 01:49:00,
2013-01-03 20:54:00,29.4,21.2,30.34,WSW,246,4.0,12.0,71,0.00,,---,0.01,VWS V14.01,2013-01-04 01:54:00,
2013-01-03 20:59:00,29.3,21.4,30.35,WSW,242,7.0,12.0,72,0.00,,---,0.01,VWS V14.01,2013-01-04 01:59:00,
2013-01-03 21:04:00,29.3,21.4,30.34,WSW,253,5.0,8.0,72,0.00,,---,0.01,VWS V14.01,2013-01-04 02:04:00,
2013-01-03 21:09:00,29.4,21.2,30.34,WSW,257,5.0,10.0,71,0.00,,---,0.01,VWS V14.01,2013-01-04 02:09:00,
2013-01-03 21:14:00,29.3,21.4,30.34,WSW,249,6.0,10.0,72,0.00,,---,0.01,VWS V14.01,2013-01-04 02:14:00,
2013-01-03 21:19:00,29.3,21.4,30.34,WSW,254,4.0,10.0,72,0.00,,---,0.01,VWS V14.01,2013-01-04 02:19:00,
2013-01-03 21:24:00,29.3,21.4,30.34,WSW,242,4.0,10.0,72,0.00,,---,0.01,VWS V14.01,2013-01-04 02:24:00,
2013-01-03 21:29:00,29.3,21.7,30.34,WSW,249,4.0,10.0,73,0.00,,---,0.01,VWS V14.01,2013-01-04 02:29:00,
2013-01-03 21:34:00,29.1,21.5,30.34,WSW,257,5.0,6.0,73,0.00,,---,0.01,VWS V14.01,2013-01-04 02:34:00,
2013-01-03 21:39:00,29.1,21.5,30.35,WSW,248,3.0,8.0,73,0.00,,---,0.01,VWS V14.01,2013-01-04 02:39:00,
2013-01-03 21:44:00,29.1,21.5,30.35,SW,233,6.0,8.0,73,0.00,,---,0.01,VWS V14.01,2013-01-04 02:44:00,
2013-01-03 21:49:00,29.3,21.7,30.34,WSW,245,8.0,8.0,73,0.00,,---,0.01,VWS V14.01,2013-01-04 02:49:00,
2013-01-03 21:54:00,29.3,21.7,30.34,WSW,248,4.0,8.0,73,0.00,,---,0.01,VWS V14.01,2013-01-04 02:54:00,
2013-01-03 21:59:00,29.3,21.7,30.34,WSW,254,4.0,8.0,73,0.00,,---,0.01,VWS V14.01,2013-01-04 02:59:00,
2013-01-03 22:04:00,29.3,21.7,30.34,WSW,241,4.0,6.0,73,0.00,,---,0.01,VWS V14.01,2013-01-04 03:04:00,
2013-01-03 22:09:00,29.3,21.7,30.34,WSW,237,4.0,7.0,73,0.00,,---,0.01,VWS V14.01,2013-01-04 03:09:00,
2013-01-03 22:14:00,29.1,21.5,30.34,WSW,248,5.0,7.0,73,0.00,,---,0.01,VWS V14.01,2013-01-04 03:14:00,
2013-01-03 22:19:00,29.1,21.9,30.34,WSW,247,4.0,7.0,74,0.00,,---,0.01,VWS V14.01,2013-01-04 03:19:00,
2013-01-03 22:24:00,29.0,21.8,30.34,WSW,255,4.0,7.0,74,0.00,,---,0.01,VWS V14.01,2013-01-04 03:24:00,
2013-01-03 22:29:00,29.0,21.8,30.34,West,261,3.0,7.0,74,0.00,,---,0.01,VWS V14.01,2013-01-04 03:29:00,
2013-01-03 22:34:00,29.0,21.8,30.34,WSW,252,3.0,8.0,74,0.00,,---,0.01,VWS V14.01,2013-01-04 03:34:00,
2013-01-03 22:39:00,29.0,21.8,30.34,WSW,248,4.0,8.0,74,0.00,,---,0.01,VWS V14.01,2013-01-04 03:39:00,
2013-01-03 22:44:00,29.1,21.9,30.34,WSW,242,8.0,8.0,74,0.00,,---,0.01,VWS V14.01,2013-01-04 03:44:00,
2013-01-03 22:49:00,29.1,21.9,30.34,WSW,252,9.0,9.0,74,0.00,,---,0.01,VWS V14.01,2013-01-04 03:49:00,
2013-01-03 22:54:00,29.3,21.7,30.34,WSW,252,7.0,9.0,73,0.00,,---,0.01,VWS V14.01,2013-01-04 03:54:00,
2013-01-03 22:59:00,29.3,22.1,30.35,WSW,258,3.0,9.0,74,0.00,,---,0.01,VWS V14.01,2013-01-04 03:59:00,
2013-01-03 23:04:00,29.1,21.9,30.35,WSW,244,4.0,6.0,74,0.00,,---,0.01,VWS V14.01,2013-01-04 04:04:00,
2013-01-03 23:09:00,29.1,21.9,30.35,West,259,3.0,7.0,74,0.00,,---,0.01,VWS V14.01,2013-01-04 04:09:00,
2013-01-03 23:14:00,29.1,21.9,30.35,WSW,257,3.0,7.0,74,0.00,,---,0.01,VWS V14.01,2013-01-04 04:14:00,
2013-01-03 23:19:00,29.1,21.9,30.35,West,261,5.0,9.0,74,0.00,,---,0.01,VWS V14.01,2013-01-04 04:19:00,
2013-01-03 23:24:00,29.0,21.8,30.34,West,259,3.0,9.0,74,0.00,,---,0.01,VWS V14.01,2013-01-04 04:24:00,
2013-01-03 23:29:00,29.0,21.8,30.35,West,262,4.0,9.0,74,0.00,,---,0.01,VWS V14.01,2013-01-04 04:29:00,
2013-01-03 23:34:00,29.0,21.8,30.35,WSW,254,3.0,7.0,74,0.00,,---,0.01,VWS V14.01,2013-01-04 04:34:00,
2013-01-03 23:39:00,29.1,21.9,30.35,West,264,6.0,8.0,74,0.00,,---,0.01,VWS V14.01,2013-01-04 04:39:00,
2013-01-03 23:44:00,29.1,21.9,30.35,West,264,7.0,8.0,74,0.00,,---,0.01,VWS V14.01,2013-01-04 04:44:00,
2013-01-03 23:49:00,29.1,21.9,30.35,West,261,8.0,11.0,74,0.00,,---,0.01,VWS V14.01,2013-01-04 04:49:00,
2013-01-03 23:54:00,29.3,22.1,30.35,West,262,8.0,11.0,74,0.00,,---,0.01,VWS V14.01,2013-01-04 04:54:00,
2013-01-03 23:59:00,29.5,21.9,30.35,West,268,8.0,11.0,73,0.00,,---,0.01,VWS V14.01,2013-01-04 04:59:00,